createdAt,value
2019-01-26T00:00:47.937Z,24.40
2019-01-26T00:03:40.010Z,24.40
2019-01-26T00:06:32.404Z,24.40
2019-01-26T00:09:25.136Z,24.40
2019-01-26T00:12:17.572Z,24.40
2019-01-26T00:15:10.344Z,24.40
2019-01-26T00:18:02.615Z,24.40
2019-01-26T00:20:55.008Z,24.40
2019-01-26T00:23:47.433Z,24.40
2019-01-26T00:26:40.876Z,24.40
2019-01-26T00:29:33.564Z,24.40
2019-01-26T00:32:26.019Z,24.40
2019-01-26T00:35:16.331Z,24.40
2019-01-26T00:38:08.710Z,24.40
2019-01-26T00:41:01.153Z,24.40
2019-01-26T00:43:53.196Z,24.40
2019-01-26T00:46:46.054Z,24.40
2019-01-26T00:49:38.497Z,24.40
2019-01-26T00:52:30.975Z,24.40
2019-01-26T00:55:23.907Z,24.40
2019-01-26T00:58:16.127Z,24.40
2019-01-26T01:01:09.319Z,24.40
2019-01-26T01:04:02.194Z,24.40
2019-01-26T01:06:54.330Z,24.40
2019-01-26T01:09:46.752Z,24.30
2019-01-26T01:12:39.011Z,24.40
2019-01-26T01:15:31.330Z,24.30
2019-01-26T01:18:23.703Z,24.30
2019-01-26T01:21:16.508Z,24.30
2019-01-26T01:27:00.696Z,24.30
2019-01-26T01:29:51.207Z,24.30
2019-01-26T01:32:43.704Z,24.20
2019-01-26T01:35:36.296Z,24.20
2019-01-26T01:38:29.251Z,24.30
2019-01-26T01:41:21.814Z,24.30
2019-01-26T01:44:14.929Z,24.30
2019-01-26T01:47:07.612Z,24.40
2019-01-26T01:50:00.003Z,24.30
2019-01-26T01:52:52.710Z,24.30
2019-01-26T01:55:45.326Z,24.30
2019-01-26T01:58:37.765Z,24.30
2019-01-26T02:01:30.256Z,24.30
2019-01-26T02:04:22.521Z,24.30
2019-01-26T02:07:14.986Z,24.30
2019-01-26T02:10:08.268Z,24.30
2019-01-26T02:13:02.216Z,24.30
2019-01-26T02:15:54.669Z,24.30
2019-01-26T02:18:47.422Z,24.30
2019-01-26T02:21:40.232Z,24.30
2019-01-26T02:24:32.969Z,24.30
2019-01-26T02:27:25.890Z,24.30
2019-01-26T02:30:20.167Z,24.30
2019-01-26T02:33:12.601Z,24.30
2019-01-26T02:36:05.399Z,24.30
2019-01-26T02:38:58.211Z,24.20
2019-01-26T02:41:51.139Z,24.20
2019-01-26T02:44:43.285Z,24.20
2019-01-26T02:47:39.498Z,24.30
2019-01-26T02:50:32.001Z,24.20
2019-01-26T02:53:24.424Z,24.20
2019-01-26T02:56:19.093Z,24.30
2019-01-26T02:59:11.334Z,24.20
2019-01-26T03:02:04.507Z,24.20
2019-01-26T03:04:57.994Z,24.20
2019-01-26T03:07:52.060Z,24.20
2019-01-26T03:10:44.913Z,24.20
2019-01-26T03:13:37.691Z,24.20
2019-01-26T03:16:30.584Z,24.20
2019-01-26T03:19:22.870Z,24.30
2019-01-26T03:22:16.418Z,24.20
2019-01-26T03:25:10.820Z,24.20
2019-01-26T03:28:02.669Z,24.20
2019-01-26T03:30:55.471Z,24.20
2019-01-26T03:33:47.870Z,24.20
2019-01-26T03:36:40.495Z,24.20
2019-01-26T03:39:32.823Z,24.20
2019-01-26T03:42:25.265Z,24.20
2019-01-26T03:45:19.105Z,24.20
2019-01-26T03:48:13.419Z,24.10
2019-01-26T03:51:07.065Z,24.10
2019-01-26T03:53:59.948Z,24.20
2019-01-26T03:56:52.732Z,24.20
2019-01-26T03:59:45.659Z,24.20
2019-01-26T04:02:38.084Z,24.20
2019-01-26T04:05:30.864Z,24.20
2019-01-26T04:08:23.758Z,24.20
2019-01-26T04:11:16.855Z,24.20
2019-01-26T04:14:09.704Z,24.20
2019-01-26T04:17:02.479Z,24.20
2019-01-26T04:19:55.705Z,24.20
2019-01-26T04:22:48.243Z,24.20
2019-01-26T04:25:40.946Z,24.20
2019-01-26T04:28:33.398Z,24.20
2019-01-26T04:31:26.492Z,24.20
2019-01-26T04:34:18.201Z,24.20
2019-01-26T04:37:12.115Z,24.10
2019-01-26T04:40:04.871Z,24.00
2019-01-26T04:42:57.647Z,23.90
2019-01-26T04:45:50.484Z,23.90
2019-01-26T04:48:43.738Z,23.90
2019-01-26T04:51:36.874Z,24.00
2019-01-26T04:54:30.210Z,24.00
2019-01-26T04:57:22.655Z,24.10
2019-01-26T05:00:17.289Z,24.10
2019-01-26T05:03:10.309Z,24.10
2019-01-26T05:06:03.710Z,24.10
2019-01-26T05:08:56.504Z,24.10
2019-01-26T05:11:48.988Z,24.10
2019-01-26T05:14:41.107Z,24.10
2019-01-26T05:20:23.430Z,24.10
2019-01-26T05:23:16.172Z,24.10
2019-01-26T05:26:09.459Z,24.10
2019-01-26T05:29:02.411Z,24.10
2019-01-26T05:31:55.915Z,24.10
2019-01-26T05:34:49.009Z,24.10
2019-01-26T05:37:41.601Z,24.10
2019-01-26T05:40:34.413Z,24.10
2019-01-26T05:43:26.663Z,24.10
2019-01-26T05:46:18.942Z,24.10
2019-01-26T05:49:11.258Z,24.10
2019-01-26T05:52:03.654Z,24.10
2019-01-26T05:54:55.991Z,24.10
2019-01-26T05:57:48.180Z,24.10
2019-01-26T06:00:40.949Z,24.10
2019-01-26T06:03:33.463Z,24.10
2019-01-26T06:06:26.100Z,24.10
2019-01-26T06:09:18.654Z,24.10
2019-01-26T06:12:11.059Z,24.10
2019-01-26T06:15:03.924Z,24.10
2019-01-26T06:17:56.424Z,24.10
2019-01-26T06:20:48.834Z,24.10
2019-01-26T06:23:41.008Z,24.10
2019-01-26T06:26:33.194Z,24.10
2019-01-26T06:29:25.604Z,24.10
2019-01-26T06:32:18.257Z,24.10
2019-01-26T06:35:10.781Z,24.10
2019-01-26T06:38:03.204Z,24.10
2019-01-26T06:40:55.382Z,24.10
2019-01-26T06:43:47.623Z,24.10
2019-01-26T06:46:40.004Z,24.10
2019-01-26T06:49:32.535Z,24.10
2019-01-26T06:52:24.616Z,24.10
2019-01-26T06:55:16.693Z,24.10
2019-01-26T06:58:09.304Z,24.00
2019-01-26T07:01:01.677Z,24.10
2019-01-26T07:03:54.138Z,24.10
2019-01-26T07:07:04.622Z,24.00
2019-01-26T07:09:57.528Z,24.10
2019-01-26T07:16:05.231Z,24.10
2019-01-26T07:18:58.530Z,24.00
2019-01-26T07:21:50.809Z,24.10
2019-01-26T07:24:44.261Z,24.00
2019-01-26T07:27:36.642Z,24.00
2019-01-26T07:30:29.562Z,24.00
2019-01-26T07:33:21.629Z,24.00
2019-01-26T07:36:13.924Z,24.00
2019-01-26T07:39:07.349Z,24.00
2019-01-26T07:42:00.150Z,24.00
2019-01-26T07:44:52.935Z,24.00
2019-01-26T07:47:45.093Z,24.00
2019-01-26T07:50:46.870Z,24.00
2019-01-26T07:53:39.640Z,24.10
2019-01-26T07:56:33.045Z,24.10
2019-01-26T07:59:25.674Z,24.00
2019-01-26T08:02:18.053Z,24.00
2019-01-26T08:05:11.402Z,24.00
2019-01-26T08:08:03.982Z,24.00
2019-01-26T08:10:56.727Z,24.00
2019-01-26T08:13:49.097Z,24.00
2019-01-26T08:16:41.346Z,24.00
2019-01-26T08:19:33.627Z,24.00
2019-01-26T08:22:25.995Z,24.00
2019-01-26T08:25:18.193Z,24.00
2019-01-26T08:28:11.035Z,24.00
2019-01-26T08:31:03.063Z,24.00
2019-01-26T08:33:55.449Z,24.00
2019-01-26T08:36:47.594Z,24.00
2019-01-26T08:39:40.044Z,24.00
2019-01-26T08:42:32.632Z,24.00
2019-01-26T08:45:25.416Z,24.00
2019-01-26T08:48:17.591Z,24.00
2019-01-26T08:51:10.462Z,24.00
2019-01-26T08:54:03.292Z,24.00
2019-01-26T08:56:56.012Z,24.00
2019-01-26T08:59:48.592Z,24.00
2019-01-26T09:03:14.528Z,24.00
2019-01-26T09:06:13.348Z,24.00
2019-01-26T09:09:07.284Z,24.00
2019-01-26T09:11:59.409Z,24.00
2019-01-26T09:14:52.387Z,24.00
2019-01-26T09:17:45.837Z,24.00
2019-01-26T09:20:39.006Z,24.00
2019-01-26T09:23:31.837Z,24.00
2019-01-26T09:26:25.654Z,24.00
2019-01-26T09:29:18.471Z,24.00
2019-01-26T09:32:11.576Z,24.00
2019-01-26T09:35:04.648Z,24.00
2019-01-26T09:37:57.609Z,24.00
2019-01-26T09:40:51.013Z,24.00
2019-01-26T09:43:43.604Z,24.00
2019-01-26T09:46:36.443Z,24.00
2019-01-26T09:49:31.871Z,24.00
2019-01-26T09:52:24.617Z,24.00
2019-01-26T09:55:17.738Z,24.00
2019-01-26T09:58:10.525Z,24.00
2019-01-26T10:01:03.282Z,24.00
2019-01-26T10:03:55.670Z,24.00
2019-01-26T10:06:47.830Z,24.00
2019-01-26T10:09:40.435Z,24.00
2019-01-26T10:12:32.797Z,24.00
2019-01-26T10:15:25.447Z,24.00
2019-01-26T10:18:17.800Z,24.00
2019-01-26T10:21:10.199Z,24.00
2019-01-26T10:24:03.257Z,24.00
2019-01-26T10:26:55.519Z,24.00
2019-01-26T10:29:48.225Z,24.00
2019-01-26T10:32:40.926Z,24.00
2019-01-26T10:36:07.180Z,24.00
2019-01-26T10:39:11.000Z,23.90
2019-01-26T10:42:27.032Z,24.00
2019-01-26T10:45:19.589Z,24.00
2019-01-26T10:48:13.837Z,23.90
2019-01-26T10:51:06.625Z,23.90
2019-01-26T10:53:57.251Z,23.90
2019-01-26T10:56:50.073Z,23.90
2019-01-26T10:59:42.576Z,23.90
2019-01-26T11:02:35.411Z,24.00
2019-01-26T11:05:28.038Z,24.00
2019-01-26T11:08:20.683Z,23.90
2019-01-26T11:11:18.616Z,23.90
2019-01-26T11:14:12.531Z,23.90
2019-01-26T11:17:04.902Z,23.90
2019-01-26T11:20:04.580Z,23.90
2019-01-26T11:22:57.637Z,23.90
2019-01-26T11:25:49.942Z,23.90
2019-01-26T11:28:42.867Z,23.90
2019-01-26T11:31:35.986Z,23.90
2019-01-26T11:34:28.666Z,23.90
2019-01-26T11:37:20.964Z,23.90
2019-01-26T11:40:25.656Z,23.90
2019-01-26T11:43:17.870Z,23.90
2019-01-26T11:46:19.669Z,23.90
2019-01-26T11:49:15.229Z,23.90
2019-01-26T11:52:09.344Z,23.90
2019-01-26T11:55:08.386Z,23.90
2019-01-26T11:58:01.774Z,23.90
2019-01-26T12:01:14.025Z,23.90
2019-01-26T12:04:21.503Z,23.90
2019-01-26T12:07:25.778Z,23.90
2019-01-26T12:10:18.335Z,23.90
2019-01-26T12:13:10.633Z,23.90
2019-01-26T12:16:03.831Z,23.90
2019-01-26T12:18:57.003Z,23.90
2019-01-26T12:21:49.502Z,23.90
2019-01-26T12:24:41.867Z,23.90
2019-01-26T12:27:34.136Z,23.90
2019-01-26T12:30:26.552Z,23.90
2019-01-26T12:33:19.120Z,23.90
2019-01-26T12:36:11.532Z,23.90
2019-01-26T12:39:03.713Z,23.90
2019-01-26T12:41:56.988Z,23.90
2019-01-26T12:44:49.814Z,23.80
2019-01-26T12:47:42.909Z,23.90
2019-01-26T12:50:35.814Z,23.90
2019-01-26T12:53:29.478Z,23.90
2019-01-26T12:56:22.671Z,23.90
2019-01-26T12:59:15.606Z,23.90
2019-01-26T13:04:57.607Z,23.90
2019-01-26T13:07:50.599Z,23.90
2019-01-26T13:10:44.530Z,23.80
2019-01-26T13:13:37.772Z,23.90
2019-01-26T13:16:30.003Z,23.80
2019-01-26T13:19:22.745Z,23.80
2019-01-26T13:22:15.621Z,23.80
2019-01-26T13:25:09.222Z,23.80
2019-01-26T13:28:01.477Z,23.80
2019-01-26T13:30:54.824Z,23.90
2019-01-26T13:33:47.321Z,23.90
2019-01-26T13:36:40.498Z,23.80
2019-01-26T13:39:34.466Z,23.80
2019-01-26T13:42:26.919Z,23.80
2019-01-26T13:45:19.477Z,23.80
2019-01-26T13:48:11.822Z,23.80
2019-01-26T13:51:03.973Z,23.80
2019-01-26T13:53:56.467Z,23.80
2019-01-26T13:56:49.093Z,23.80
2019-01-26T13:59:41.842Z,23.80
2019-01-26T14:02:34.014Z,23.80
2019-01-26T14:05:26.096Z,23.80
2019-01-26T14:08:18.081Z,23.80
2019-01-26T14:11:10.073Z,23.80
2019-01-26T14:14:02.400Z,23.80
2019-01-26T14:16:55.015Z,23.80
2019-01-26T14:19:51.200Z,23.80
2019-01-26T14:22:40.343Z,23.80
2019-01-26T14:25:32.886Z,23.80
2019-01-26T14:28:27.121Z,23.80
2019-01-26T14:31:19.958Z,23.80
2019-01-26T14:34:13.069Z,23.80
2019-01-26T14:37:06.078Z,23.80
2019-01-26T14:39:58.862Z,23.80
2019-01-26T14:42:54.446Z,23.80
2019-01-26T14:45:44.784Z,23.80
2019-01-26T14:48:36.902Z,23.80
2019-01-26T14:51:29.876Z,23.80
2019-01-26T14:54:21.927Z,23.70
2019-01-26T14:57:14.604Z,23.80
2019-01-26T15:00:07.955Z,23.70
2019-01-26T15:03:00.258Z,23.70
2019-01-26T15:05:52.874Z,23.80
2019-01-26T15:08:45.536Z,23.80
2019-01-26T15:11:38.284Z,23.70
2019-01-26T15:14:30.382Z,23.70
2019-01-26T15:17:22.778Z,23.70
2019-01-26T15:20:16.550Z,23.70
2019-01-26T15:23:09.155Z,23.70
2019-01-26T15:26:01.762Z,23.80
2019-01-26T15:28:55.259Z,23.70
2019-01-26T15:31:48.057Z,23.70
2019-01-26T15:34:41.155Z,23.70
2019-01-26T15:37:34.203Z,23.80
2019-01-26T15:40:26.608Z,23.70
2019-01-26T15:43:19.152Z,23.70
2019-01-26T15:46:11.443Z,23.70
2019-01-26T15:49:03.846Z,23.70
2019-01-26T15:51:55.959Z,23.70
2019-01-26T15:54:47.971Z,23.70
2019-01-26T15:57:40.286Z,23.70
2019-01-26T16:00:33.688Z,23.70
2019-01-26T16:03:25.935Z,23.70
2019-01-26T16:06:17.980Z,23.70
2019-01-26T16:09:11.381Z,23.70
2019-01-26T16:12:03.644Z,23.70
2019-01-26T16:14:55.746Z,23.70
2019-01-26T16:17:48.348Z,23.70
2019-01-26T16:20:40.983Z,23.70
2019-01-26T16:29:14.763Z,23.70
2019-01-26T16:32:07.354Z,23.70
2019-01-26T16:34:59.477Z,23.70
2019-01-26T16:37:51.830Z,23.70
2019-01-26T16:40:44.168Z,23.70
2019-01-26T16:43:36.313Z,23.70
2019-01-26T16:46:28.322Z,23.70
2019-01-26T16:49:21.110Z,23.70
2019-01-26T16:52:14.126Z,23.70
2019-01-26T16:55:06.710Z,23.70
2019-01-26T16:57:59.113Z,23.70
2019-01-26T17:00:56.157Z,23.70
2019-01-26T17:03:48.255Z,23.70
2019-01-26T17:06:40.558Z,23.70
2019-01-26T17:09:32.870Z,23.70
2019-01-26T17:12:25.140Z,23.70
2019-01-26T17:15:17.459Z,23.70
2019-01-26T17:18:13.814Z,23.70
2019-01-26T17:21:05.000Z,23.70
2019-01-26T17:23:57.344Z,23.70
2019-01-26T17:26:52.917Z,23.70
2019-01-26T17:29:42.779Z,23.70
2019-01-26T17:32:35.328Z,23.70
2019-01-26T17:35:27.885Z,23.70
2019-01-26T17:38:20.334Z,23.70
2019-01-26T17:41:12.177Z,23.70
2019-01-26T17:44:04.603Z,23.70
2019-01-26T17:46:56.897Z,23.70
2019-01-26T17:49:49.329Z,23.70
2019-01-26T17:52:41.436Z,23.70
2019-01-26T17:55:33.617Z,23.70
2019-01-26T17:58:27.082Z,23.60
2019-01-26T18:01:19.865Z,23.60
2019-01-26T18:04:11.964Z,23.60
2019-01-26T18:07:04.586Z,23.60
2019-01-26T18:09:56.907Z,23.60
2019-01-26T18:12:49.730Z,23.70
2019-01-26T18:15:42.583Z,23.60
2019-01-26T18:18:34.884Z,23.70
2019-01-26T18:21:26.911Z,23.70
2019-01-26T18:24:19.535Z,23.60
2019-01-26T18:27:11.506Z,23.60
2019-01-26T18:30:03.790Z,23.60
2019-01-26T18:32:56.381Z,23.60
2019-01-26T18:35:49.196Z,23.60
2019-01-26T18:38:41.550Z,23.60
2019-01-26T18:44:22.999Z,23.60
2019-01-26T18:47:15.758Z,23.60
2019-01-26T18:50:08.847Z,23.60
2019-01-26T18:53:01.186Z,23.60
2019-01-26T18:55:54.618Z,23.60
2019-01-26T18:58:47.084Z,23.60
2019-01-26T19:01:39.467Z,23.60
2019-01-26T19:04:37.555Z,23.60
2019-01-26T19:07:29.528Z,23.60
2019-01-26T19:10:21.867Z,23.60
2019-01-26T19:13:14.261Z,23.60
2019-01-26T19:16:06.957Z,23.60
2019-01-26T19:18:59.405Z,23.60
2019-01-26T19:21:51.726Z,23.60
2019-01-26T19:24:43.780Z,23.60
2019-01-26T19:27:35.810Z,23.60
2019-01-26T19:30:28.015Z,23.60
2019-01-26T19:33:20.914Z,23.60
2019-01-26T19:36:12.977Z,23.60
2019-01-26T19:39:05.723Z,23.60
2019-01-26T19:41:57.737Z,23.60
2019-01-26T19:44:49.810Z,23.50
2019-01-26T19:47:43.011Z,23.60
2019-01-26T19:50:35.522Z,23.60
2019-01-26T19:53:28.000Z,23.60
2019-01-26T19:56:20.861Z,23.60
2019-01-26T19:59:13.495Z,23.60
2019-01-26T20:02:07.046Z,23.60
2019-01-26T20:04:59.713Z,23.60
2019-01-26T20:07:52.029Z,23.60
2019-01-26T20:10:44.709Z,23.60
2019-01-26T20:13:37.050Z,23.60
2019-01-26T20:16:29.144Z,23.60
2019-01-26T20:19:21.102Z,23.60
2019-01-26T20:22:13.699Z,23.60
2019-01-26T20:25:06.141Z,23.60
2019-01-26T20:27:58.434Z,23.60
2019-01-26T20:30:52.302Z,23.60
2019-01-26T20:36:33.307Z,23.60
2019-01-26T20:39:25.763Z,23.60
2019-01-26T20:42:17.866Z,23.60
2019-01-26T20:45:11.476Z,23.60
2019-01-26T20:48:03.924Z,23.60
2019-01-26T20:50:56.248Z,23.60
2019-01-26T20:53:48.268Z,23.60
2019-01-26T20:56:40.518Z,23.60
2019-01-26T20:59:32.879Z,23.50
2019-01-26T21:02:25.563Z,23.50
2019-01-26T21:05:17.625Z,23.50
2019-01-26T21:08:09.950Z,23.50
2019-01-26T21:11:02.549Z,23.50
2019-01-26T21:13:54.556Z,23.50
2019-01-26T21:16:47.996Z,23.50
2019-01-26T21:19:40.408Z,23.50
2019-01-26T21:22:32.580Z,23.50
2019-01-26T21:25:24.820Z,23.50
2019-01-26T21:28:17.140Z,23.50
2019-01-26T21:31:09.678Z,23.50
2019-01-26T21:34:02.127Z,23.50
2019-01-26T21:36:54.587Z,23.50
2019-01-26T21:39:47.427Z,23.50
2019-01-26T21:42:39.696Z,23.50
2019-01-26T21:45:31.956Z,23.50
2019-01-26T21:48:24.241Z,23.50
2019-01-26T21:51:16.823Z,23.50
2019-01-26T21:54:08.990Z,23.50
2019-01-26T21:57:01.294Z,23.50
2019-01-26T21:59:53.660Z,23.50
2019-01-26T22:02:45.783Z,23.50
2019-01-26T22:05:38.238Z,23.50
2019-01-26T22:08:30.377Z,23.50
2019-01-26T22:11:22.419Z,23.50
2019-01-26T22:14:14.421Z,23.50
2019-01-26T22:17:06.452Z,23.50
2019-01-26T22:19:58.684Z,23.50
2019-01-26T22:22:51.781Z,23.50
2019-01-26T22:25:44.823Z,23.50
2019-01-26T22:28:37.162Z,23.50
2019-01-26T22:31:29.557Z,23.50
2019-01-26T22:34:21.647Z,23.50
2019-01-26T22:37:14.273Z,23.40
2019-01-26T22:40:07.347Z,23.50
2019-01-26T22:42:59.849Z,23.50
2019-01-26T22:45:52.567Z,23.50
2019-01-26T22:48:45.464Z,23.50
2019-01-26T22:51:37.636Z,23.40
2019-01-26T22:54:29.605Z,23.50
2019-01-26T22:57:21.691Z,23.40
2019-01-26T23:00:18.400Z,23.50
2019-01-26T23:03:12.138Z,23.40
2019-01-26T23:06:28.624Z,23.50
2019-01-26T23:09:26.518Z,23.50
2019-01-26T23:12:35.397Z,23.40
2019-01-26T23:15:49.281Z,23.40
2019-01-26T23:18:58.229Z,23.40
2019-01-26T23:22:11.662Z,23.40
2019-01-26T23:25:23.591Z,23.40
2019-01-26T23:28:32.311Z,23.40
2019-01-26T23:31:24.658Z,23.40
2019-01-26T23:34:17.418Z,23.40
2019-01-26T23:37:10.427Z,23.40
2019-01-26T23:40:03.031Z,23.40
2019-01-26T23:42:55.089Z,23.40
2019-01-26T23:45:47.190Z,23.40
2019-01-26T23:48:39.504Z,23.40
2019-01-26T23:51:31.849Z,23.40
2019-01-26T23:54:24.004Z,23.40
2019-01-26T23:57:16.735Z,23.40
